createdAt,value
2023-03-15T00:04:54.870Z,99700.03
2023-03-15T00:09:54.631Z,99705.63
2023-03-15T00:14:51.551Z,99710.81
2023-03-15T00:19:48.187Z,99719.22
2023-03-15T00:24:45.127Z,99731.75
2023-03-15T00:29:41.544Z,99729.63
2023-03-15T00:34:37.964Z,99722.78
2023-03-15T00:39:37.768Z,99725.69
2023-03-15T00:44:34.238Z,99732.00
2023-03-15T00:49:30.664Z,99730.69
2023-03-15T00:54:27.124Z,99744.75
2023-03-15T00:59:23.474Z,99742.94
2023-03-15T01:04:19.848Z,99752.69
2023-03-15T01:09:16.176Z,99751.53
2023-03-15T01:14:12.693Z,99762.28
2023-03-15T01:19:09.108Z,99760.72
2023-03-15T01:24:05.788Z,99765.19
2023-03-15T01:29:02.146Z,99775.69
2023-03-15T01:33:59.196Z,99775.00
2023-03-15T01:38:55.579Z,99789.81
2023-03-15T01:43:51.949Z,99793.09
2023-03-15T01:48:51.065Z,99798.16
2023-03-15T01:53:53.482Z,99804.59
2023-03-15T01:58:52.817Z,99807.59
2023-03-15T02:03:59.732Z,99794.75
2023-03-15T02:09:01.692Z,99805.69
2023-03-15T02:13:59.981Z,99800.56
2023-03-15T02:18:56.463Z,99813.38
2023-03-15T02:24:05.673Z,99817.94
2023-03-15T02:29:02.193Z,99836.41
2023-03-15T02:33:59.037Z,99833.00
2023-03-15T02:38:56.605Z,99837.41
2023-03-15T02:43:55.727Z,99847.72
2023-03-15T02:48:54.211Z,99863.28
2023-03-15T02:53:50.590Z,99871.19
2023-03-15T02:58:47.283Z,99887.84
2023-03-15T03:03:45.427Z,99906.25
2023-03-15T03:08:42.060Z,99910.59
2023-03-15T03:13:38.398Z,99916.63
2023-03-15T03:18:37.775Z,99931.31
2023-03-15T03:23:35.847Z,99958.22
2023-03-15T03:28:33.293Z,99962.41
2023-03-15T03:33:29.737Z,99977.75
2023-03-15T03:38:26.205Z,99988.09
2023-03-15T03:43:22.613Z,99993.22
2023-03-15T03:48:18.952Z,100003.53
2023-03-15T03:53:15.476Z,100006.94
2023-03-15T03:58:12.167Z,100019.81
2023-03-15T04:03:09.269Z,100010.06
2023-03-15T04:08:05.810Z,100026.63
2023-03-15T04:13:03.226Z,100029.19
2023-03-15T04:17:59.760Z,100036.84
2023-03-15T04:22:56.124Z,100028.84
2023-03-15T04:27:59.529Z,100041.09
2023-03-15T04:32:58.931Z,100053.28
2023-03-15T04:37:55.573Z,100055.81
2023-03-15T04:42:55.462Z,100063.59
2023-03-15T04:47:53.034Z,100072.31
2023-03-15T04:52:50.025Z,100067.09
2023-03-15T04:57:46.411Z,100075.78
2023-03-15T05:02:43.056Z,100086.97
2023-03-15T05:07:39.707Z,100077.34
2023-03-15T05:12:36.059Z,100086.84
2023-03-15T05:17:33.672Z,100086.97
2023-03-15T05:22:30.049Z,100094.75
2023-03-15T05:27:26.394Z,100109.38
2023-03-15T05:32:26.694Z,100105.03
2023-03-15T05:37:24.003Z,100114.56
2023-03-15T05:42:25.961Z,100119.00
2023-03-15T05:47:23.220Z,100121.56
2023-03-15T05:52:19.612Z,100140.66
2023-03-15T05:57:16.002Z,100150.38
2023-03-15T06:02:12.401Z,100166.09
2023-03-15T06:07:08.795Z,100172.22
2023-03-15T06:12:05.662Z,100173.09
2023-03-15T06:17:02.013Z,100182.56
2023-03-15T06:21:58.566Z,100206.44
2023-03-15T06:26:56.120Z,100216.91
2023-03-15T06:31:53.344Z,100219.25
2023-03-15T06:36:49.834Z,100221.88
2023-03-15T06:41:46.196Z,100228.78
2023-03-15T06:46:42.589Z,100234.72
2023-03-15T06:51:39.492Z,100235.56
2023-03-15T06:56:37.291Z,100241.13
2023-03-15T07:01:33.688Z,100246.19
2023-03-15T07:06:30.357Z,100259.78
2023-03-15T07:11:26.725Z,100257.66
2023-03-15T07:16:23.321Z,100263.75
2023-03-15T07:21:20.029Z,100264.34
2023-03-15T07:26:16.522Z,100267.03
2023-03-15T07:31:13.278Z,100269.16
2023-03-15T07:36:09.856Z,100278.41
2023-03-15T07:41:07.455Z,100265.06
2023-03-15T07:46:03.945Z,100278.34
2023-03-15T07:51:00.672Z,100281.56
2023-03-15T07:55:57.077Z,100291.66
2023-03-15T08:00:57.175Z,100297.41
2023-03-15T08:05:53.953Z,100304.59
2023-03-15T08:10:50.336Z,100299.66
2023-03-15T08:15:47.621Z,100296.66
2023-03-15T08:20:44.068Z,100310.22
2023-03-15T08:25:41.618Z,100314.28
2023-03-15T08:30:38.018Z,100331.00
2023-03-15T08:35:34.972Z,100343.06
2023-03-15T08:40:31.620Z,100347.34
2023-03-15T08:45:27.979Z,100352.41
2023-03-15T08:50:25.694Z,100358.97
2023-03-15T08:55:22.385Z,100370.63
2023-03-15T09:00:22.611Z,100373.66
2023-03-15T09:05:21.036Z,100381.19
2023-03-15T09:10:17.867Z,100393.00
2023-03-15T09:15:15.316Z,100394.56
2023-03-15T09:20:18.771Z,100395.53
2023-03-15T09:25:15.186Z,100408.78
2023-03-15T09:30:12.289Z,100420.28
2023-03-15T09:35:12.500Z,100419.63
2023-03-15T09:40:33.925Z,100428.56
2023-03-15T09:45:59.768Z,100427.19
2023-03-15T09:51:08.703Z,100436.47
2023-03-15T09:56:15.543Z,100440.28
2023-03-15T10:01:14.066Z,100437.22
2023-03-15T10:06:19.616Z,100437.31
2023-03-15T10:11:31.146Z,100437.22
2023-03-15T10:16:46.181Z,100436.22
2023-03-15T10:22:06.705Z,100437.38
2023-03-15T10:27:15.885Z,100420.44
2023-03-15T10:32:18.252Z,100437.34
2023-03-15T10:37:14.916Z,100435.50
2023-03-15T10:42:24.516Z,100435.56
2023-03-15T10:47:24.330Z,100442.81
2023-03-15T10:52:31.805Z,100440.41
2023-03-15T10:57:34.720Z,100448.84
2023-03-15T11:02:31.640Z,100438.88
2023-03-15T11:07:28.509Z,100438.13
2023-03-15T11:12:27.252Z,100445.09
2023-03-15T11:17:28.959Z,100454.44
2023-03-15T11:22:25.896Z,100457.84
2023-03-15T11:27:24.626Z,100462.44
2023-03-15T11:32:24.378Z,100465.88
2023-03-15T11:37:25.061Z,100467.03
2023-03-15T11:42:29.834Z,100474.09
2023-03-15T11:47:35.010Z,100476.97
2023-03-15T11:52:32.050Z,100480.66
2023-03-15T11:57:28.354Z,100470.56
2023-03-15T12:02:26.239Z,100467.16
2023-03-15T12:07:25.633Z,100479.09
2023-03-15T12:12:25.057Z,100477.19
2023-03-15T12:17:24.269Z,100464.97
2023-03-15T12:22:20.750Z,100488.19
2023-03-15T12:27:20.151Z,100478.22
2023-03-15T12:32:18.767Z,100486.81
2023-03-15T12:37:27.341Z,100475.41
2023-03-15T12:42:29.590Z,100493.47
2023-03-15T12:47:52.298Z,100490.16
2023-03-15T12:52:53.490Z,100487.28
2023-03-15T12:57:53.964Z,100487.28
2023-03-15T13:03:04.102Z,100490.69
2023-03-15T13:08:23.964Z,100490.59
2023-03-15T13:13:37.888Z,100482.22
2023-03-15T13:18:47.092Z,100484.25
2023-03-15T13:23:49.748Z,100473.47
2023-03-15T13:28:49.452Z,100477.88
2023-03-15T13:33:50.789Z,100474.34
2023-03-15T13:38:50.650Z,100465.78
2023-03-15T13:43:48.903Z,100474.66
2023-03-15T13:48:47.288Z,100482.84
2023-03-15T13:53:49.921Z,100464.97
2023-03-15T13:58:48.518Z,100469.72
2023-03-15T14:03:53.755Z,100480.09
2023-03-15T14:08:54.834Z,100493.34
2023-03-15T14:13:54.101Z,100496.72
2023-03-15T14:18:52.884Z,100486.16
2023-03-15T14:23:49.553Z,100487.28
2023-03-15T14:28:54.731Z,100490.06
2023-03-15T14:34:06.030Z,100496.06
2023-03-15T14:39:02.350Z,100503.50
2023-03-15T14:44:04.934Z,100508.25
2023-03-15T14:49:01.431Z,100510.91
2023-03-15T14:53:59.382Z,100522.00
2023-03-15T14:58:55.915Z,100528.06
2023-03-15T15:03:58.188Z,100522.69
2023-03-15T15:08:59.262Z,100534.91
2023-03-15T15:13:56.646Z,100534.72
2023-03-15T15:18:53.320Z,100540.56
2023-03-15T15:23:58.379Z,100537.72
2023-03-15T15:28:56.485Z,100548.22
2023-03-15T15:33:56.066Z,100561.53
2023-03-15T15:38:52.908Z,100556.78
2023-03-15T15:43:49.377Z,100567.69
2023-03-15T15:48:45.816Z,100563.41
2023-03-15T15:53:42.246Z,100561.16
2023-03-15T15:58:41.294Z,100574.03
2023-03-15T16:03:37.610Z,100572.41
2023-03-15T16:08:38.620Z,100580.59
2023-03-15T16:13:34.943Z,100573.09
2023-03-15T16:18:32.100Z,100582.59
2023-03-15T16:23:28.476Z,100564.56
2023-03-15T16:28:25.595Z,100575.81
2023-03-15T16:33:21.996Z,100576.00
2023-03-15T16:38:26.347Z,100578.34
2023-03-15T16:43:22.674Z,100563.13
2023-03-15T16:48:19.122Z,100556.56
2023-03-15T16:53:15.628Z,100551.09
2023-03-15T16:58:18.232Z,100556.00
2023-03-15T17:03:16.446Z,100593.84
2023-03-15T17:08:17.897Z,100599.63
2023-03-15T17:13:16.241Z,100594.91
2023-03-15T17:18:17.851Z,100610.13
2023-03-15T17:23:14.691Z,100614.34
2023-03-15T17:28:11.241Z,100615.13
2023-03-15T17:33:07.774Z,100615.88
2023-03-15T17:38:06.350Z,100622.41
2023-03-15T17:43:04.200Z,100635.66
2023-03-15T17:48:01.731Z,100635.19
2023-03-15T17:53:01.661Z,100649.31
2023-03-15T17:57:57.969Z,100645.94
2023-03-15T18:02:56.079Z,100650.47
2023-03-15T18:08:00.605Z,100654.84
2023-03-15T18:12:57.126Z,100648.56
2023-03-15T18:17:53.607Z,100650.97
2023-03-15T18:22:50.528Z,100658.31
2023-03-15T18:27:48.025Z,100664.09
2023-03-15T18:32:44.640Z,100666.72
2023-03-15T18:37:41.066Z,100673.09
2023-03-15T18:42:37.397Z,100671.78
2023-03-15T18:47:33.740Z,100675.94
2023-03-15T18:52:30.723Z,100676.53
2023-03-15T18:57:27.180Z,100683.28
2023-03-15T19:02:23.541Z,100676.41
2023-03-15T19:07:19.934Z,100691.59
2023-03-15T19:12:16.360Z,100694.09
2023-03-15T19:17:12.847Z,100693.59
2023-03-15T19:22:09.196Z,100695.09
2023-03-15T19:27:05.861Z,100699.16
2023-03-15T19:32:02.399Z,100705.28
2023-03-15T19:36:58.909Z,100698.16
2023-03-15T19:41:55.309Z,100706.84
2023-03-15T19:46:52.146Z,100711.72
2023-03-15T19:51:48.478Z,100702.50
2023-03-15T19:56:45.718Z,100708.28
2023-03-15T20:01:42.282Z,100715.38
2023-03-15T20:06:39.313Z,100708.88
2023-03-15T20:11:35.631Z,100713.69
2023-03-15T20:16:31.968Z,100730.75
2023-03-15T20:21:29.600Z,100740.22
2023-03-15T20:26:25.948Z,100734.81
2023-03-15T20:31:23.068Z,100746.25
2023-03-15T20:36:19.481Z,100744.63
2023-03-15T20:41:18.151Z,100747.72
2023-03-15T20:46:16.668Z,100750.41
2023-03-15T20:51:13.045Z,100746.50
2023-03-15T20:56:09.514Z,100748.66
2023-03-15T21:01:08.626Z,100747.06
2023-03-15T21:06:05.990Z,100754.59
2023-03-15T21:11:04.562Z,100738.41
2023-03-15T21:16:03.904Z,100748.22
2023-03-15T21:21:03.500Z,100739.00
2023-03-15T21:26:05.592Z,100742.19
2023-03-15T21:31:02.001Z,100744.41
2023-03-15T21:35:59.756Z,100742.78
2023-03-15T21:40:59.659Z,100747.59
2023-03-15T21:46:01.393Z,100751.31
2023-03-15T21:50:58.016Z,100741.75
2023-03-15T21:55:58.614Z,100743.97
2023-03-15T22:00:58.970Z,100753.41
2023-03-15T22:05:55.552Z,100752.59
2023-03-15T22:10:56.981Z,100750.09
2023-03-15T22:15:53.836Z,100755.53
2023-03-15T22:20:51.485Z,100753.69
2023-03-15T22:25:48.362Z,100749.97
2023-03-15T22:30:47.319Z,100748.25
2023-03-15T22:35:43.675Z,100753.91
2023-03-15T22:40:40.930Z,100743.34
2023-03-15T22:45:37.331Z,100751.19
2023-03-15T22:50:33.739Z,100743.13
2023-03-15T22:55:30.083Z,100763.09
2023-03-15T23:00:26.826Z,100750.69
2023-03-15T23:05:23.819Z,100747.84
2023-03-15T23:10:20.204Z,100753.91
2023-03-15T23:15:16.751Z,100752.06
2023-03-15T23:20:16.407Z,100745.22
2023-03-15T23:25:14.273Z,100753.81
2023-03-15T23:30:11.527Z,100753.81
2023-03-15T23:35:09.995Z,100750.53
2023-03-15T23:40:15.391Z,100752.38
2023-03-15T23:45:13.031Z,100751.44
2023-03-15T23:50:10.771Z,100754.88
2023-03-15T23:55:07.755Z,100752.19
